createdAt,value
2023-03-18T00:00:47.689Z,6.97
2023-03-18T00:03:17.532Z,8.37
2023-03-18T00:05:45.626Z,7.27
2023-03-18T00:08:13.671Z,5.73
2023-03-18T00:10:41.487Z,4.20
2023-03-18T00:13:10.491Z,6.90
2023-03-18T00:15:38.362Z,4.17
2023-03-18T00:18:06.575Z,5.37
2023-03-18T00:20:39.495Z,7.17
2023-03-18T00:23:08.776Z,5.20
2023-03-18T00:25:37.716Z,5.47
2023-03-18T00:28:06.455Z,7.00
2023-03-18T00:30:34.777Z,5.07
2023-03-18T00:33:02.639Z,7.33
2023-03-18T00:35:31.416Z,9.10
2023-03-18T00:38:00.780Z,5.43
2023-03-18T00:40:42.990Z,3.83
2023-03-18T00:43:12.598Z,4.17
2023-03-18T00:45:42.714Z,2.50
2023-03-18T00:48:11.141Z,3.27
2023-03-18T00:50:39.012Z,2.83
2023-03-18T00:53:08.313Z,4.97
2023-03-18T00:55:36.145Z,5.50
2023-03-18T00:58:04.172Z,2.80
2023-03-18T01:00:32.311Z,3.33
2023-03-18T01:03:00.392Z,6.67
2023-03-18T01:05:34.139Z,3.87
2023-03-18T01:08:03.117Z,3.63
2023-03-18T01:10:33.454Z,4.10
2023-03-18T01:13:02.003Z,4.07
2023-03-18T01:15:30.371Z,4.37
2023-03-18T01:17:58.472Z,3.67
2023-03-18T01:20:27.512Z,3.50
2023-03-18T01:22:58.524Z,5.47
2023-03-18T01:25:28.738Z,5.53
2023-03-18T01:27:58.318Z,3.87
2023-03-18T01:30:26.397Z,3.10
2023-03-18T01:32:55.625Z,5.97
2023-03-18T01:35:23.852Z,4.83
2023-03-18T01:37:53.375Z,6.70
2023-03-18T01:40:22.888Z,6.43
2023-03-18T01:42:57.087Z,3.13
2023-03-18T01:45:30.169Z,4.17
2023-03-18T01:48:01.273Z,3.97
2023-03-18T01:50:33.288Z,3.23
2023-03-18T01:53:07.885Z,3.33
2023-03-18T01:55:38.106Z,3.23
2023-03-18T01:58:11.335Z,4.40
2023-03-18T02:00:46.003Z,7.27
2023-03-18T02:03:14.043Z,3.17
2023-03-18T02:05:44.338Z,3.73
2023-03-18T02:08:12.841Z,4.50
2023-03-18T02:10:40.943Z,2.93
2023-03-18T02:13:12.487Z,5.97
2023-03-18T02:15:48.594Z,3.87
2023-03-18T02:18:20.183Z,2.33
2023-03-18T02:21:01.817Z,4.43
2023-03-18T02:23:43.466Z,5.13
2023-03-18T02:26:18.655Z,1.70
2023-03-18T02:28:50.390Z,1.77
2023-03-18T02:31:20.361Z,4.70
2023-03-18T02:33:48.735Z,4.43
2023-03-18T02:36:22.490Z,2.60
2023-03-18T02:38:53.870Z,2.30
2023-03-18T02:41:28.609Z,2.80
2023-03-18T02:43:59.117Z,5.03
2023-03-18T02:46:37.144Z,2.27
2023-03-18T02:49:07.702Z,2.13
2023-03-18T02:51:37.505Z,1.97
2023-03-18T02:54:10.171Z,2.40
2023-03-18T02:56:38.739Z,1.93
2023-03-18T02:59:08.358Z,1.77
2023-03-18T03:01:38.685Z,4.37
2023-03-18T03:04:07.901Z,3.70
2023-03-18T03:06:36.780Z,3.40
2023-03-18T03:09:05.964Z,3.47
2023-03-18T03:11:36.340Z,2.67
2023-03-18T03:14:14.196Z,3.30
2023-03-18T03:16:43.688Z,4.73
2023-03-18T03:19:12.351Z,3.97
2023-03-18T03:21:40.183Z,2.03
2023-03-18T03:24:09.889Z,3.03
2023-03-18T03:26:40.912Z,3.23
2023-03-18T03:29:08.939Z,2.23
2023-03-18T03:31:38.225Z,2.83
2023-03-18T03:34:07.697Z,4.50
2023-03-18T03:36:36.560Z,4.73
2023-03-18T03:39:06.177Z,3.43
2023-03-18T03:41:36.316Z,5.03
2023-03-18T03:44:04.773Z,5.53
2023-03-18T03:46:32.890Z,2.47
2023-03-18T03:49:02.640Z,3.70
2023-03-18T03:51:30.660Z,2.77
2023-03-18T03:53:59.135Z,6.00
2023-03-18T03:56:27.142Z,4.63
2023-03-18T03:58:55.063Z,3.03
2023-03-18T04:01:28.271Z,3.47
2023-03-18T04:03:58.939Z,1.93
2023-03-18T04:06:28.260Z,3.10
2023-03-18T04:09:02.015Z,3.67
2023-03-18T04:11:29.976Z,3.80
2023-03-18T04:13:58.204Z,3.27
2023-03-18T04:16:28.483Z,3.07
2023-03-18T04:18:56.345Z,2.20
2023-03-18T04:21:25.433Z,3.83
2023-03-18T04:23:58.095Z,5.37
2023-03-18T04:26:27.218Z,4.77
2023-03-18T04:28:59.249Z,4.10
2023-03-18T04:31:28.440Z,5.30
2023-03-18T04:33:57.385Z,5.27
2023-03-18T04:36:25.261Z,4.67
2023-03-18T04:38:54.211Z,2.40
2023-03-18T04:41:24.900Z,4.10
2023-03-18T04:43:54.958Z,2.37
2023-03-18T04:46:29.971Z,3.10
2023-03-18T04:48:58.428Z,4.00
2023-03-18T04:51:27.433Z,3.47
2023-03-18T04:53:56.486Z,1.90
2023-03-18T04:56:29.460Z,3.10
2023-03-18T04:58:59.164Z,4.80
2023-03-18T05:01:31.475Z,3.03
2023-03-18T05:03:59.679Z,3.70
2023-03-18T05:06:37.279Z,4.53
2023-03-18T05:09:10.232Z,2.83
2023-03-18T05:11:39.499Z,2.07
2023-03-18T05:14:15.598Z,2.63
2023-03-18T05:16:47.532Z,6.00
2023-03-18T05:19:15.701Z,3.93
2023-03-18T05:21:51.117Z,4.13
2023-03-18T05:24:20.167Z,2.13
2023-03-18T05:26:49.560Z,3.03
2023-03-18T05:29:19.686Z,4.07
2023-03-18T05:32:08.133Z,5.53
2023-03-18T05:34:37.831Z,2.67
2023-03-18T05:37:08.793Z,5.30
2023-03-18T05:39:39.332Z,3.73
2023-03-18T05:42:14.194Z,5.07
2023-03-18T05:44:44.583Z,5.53
2023-03-18T05:47:15.026Z,3.93
2023-03-18T05:49:57.544Z,7.37
2023-03-18T05:52:26.189Z,4.27
2023-03-18T05:55:01.077Z,3.67
2023-03-18T05:57:34.778Z,8.67
2023-03-18T06:00:07.056Z,4.27
2023-03-18T06:02:44.916Z,3.33
2023-03-18T06:05:14.554Z,4.97
2023-03-18T06:07:43.123Z,7.83
2023-03-18T06:10:12.302Z,6.53
2023-03-18T06:12:42.413Z,10.27
2023-03-18T06:15:12.240Z,7.70
2023-03-18T06:17:41.206Z,5.33
2023-03-18T06:20:11.754Z,8.30
2023-03-18T06:22:40.053Z,7.50
2023-03-18T06:25:10.063Z,11.73
2023-03-18T06:27:41.974Z,6.30
2023-03-18T06:30:11.269Z,5.27
2023-03-18T06:32:41.288Z,4.57
2023-03-18T06:35:10.511Z,4.47
2023-03-18T06:37:40.025Z,4.73
2023-03-18T06:40:10.578Z,4.23
2023-03-18T06:42:39.180Z,6.27
2023-03-18T06:45:15.306Z,5.33
2023-03-18T06:47:55.417Z,6.83
2023-03-18T06:50:24.382Z,5.90
2023-03-18T06:52:52.454Z,8.33
2023-03-18T06:55:26.429Z,8.23
2023-03-18T06:57:54.432Z,7.53
2023-03-18T07:00:29.075Z,8.30
2023-03-18T07:02:56.987Z,14.97
2023-03-18T07:05:27.423Z,6.60
2023-03-18T07:07:56.813Z,10.17
2023-03-18T07:10:29.719Z,8.87
2023-03-18T07:13:11.060Z,7.43
2023-03-18T07:15:42.856Z,4.70
2023-03-18T07:18:12.234Z,15.37
2023-03-18T07:20:40.505Z,5.40
2023-03-18T07:23:08.454Z,10.83
2023-03-18T07:25:36.714Z,5.27
2023-03-18T07:28:05.732Z,15.27
2023-03-18T07:30:34.915Z,9.20
2023-03-18T07:33:05.736Z,6.83
2023-03-18T07:35:33.938Z,5.67
2023-03-18T07:38:02.081Z,4.57
2023-03-18T07:40:29.974Z,5.70
2023-03-18T07:42:57.854Z,2.80
2023-03-18T07:45:25.764Z,9.83
2023-03-18T07:47:54.497Z,5.57
2023-03-18T07:50:23.777Z,2.77
2023-03-18T07:52:52.065Z,1.50
2023-03-18T07:55:20.019Z,3.77
2023-03-18T07:57:49.134Z,2.83
2023-03-18T08:00:18.446Z,2.73
2023-03-18T08:02:46.366Z,2.60
2023-03-18T08:05:15.822Z,3.00
2023-03-18T08:07:45.097Z,4.37
2023-03-18T08:10:14.897Z,2.70
2023-03-18T08:12:52.509Z,4.70
2023-03-18T08:15:22.236Z,3.77
2023-03-18T08:17:50.244Z,2.87
2023-03-18T08:20:18.388Z,3.30
2023-03-18T08:22:48.519Z,2.60
2023-03-18T08:25:16.536Z,6.03
2023-03-18T08:27:44.694Z,2.37
2023-03-18T08:30:13.781Z,6.07
2023-03-18T08:32:41.997Z,3.73
2023-03-18T08:35:11.229Z,4.63
2023-03-18T08:37:39.082Z,3.87
2023-03-18T08:40:09.859Z,2.63
2023-03-18T08:42:37.755Z,3.80
2023-03-18T08:45:06.515Z,4.37
2023-03-18T08:47:34.376Z,2.47
2023-03-18T08:50:02.348Z,3.40
2023-03-18T08:52:30.843Z,4.37
2023-03-18T08:54:58.749Z,2.43
2023-03-18T08:57:28.222Z,4.27
2023-03-18T08:59:56.037Z,2.13
2023-03-18T09:02:23.825Z,4.57
2023-03-18T09:04:51.691Z,2.87
2023-03-18T09:07:19.697Z,2.20
2023-03-18T09:09:47.706Z,4.90
2023-03-18T09:12:16.310Z,2.17
2023-03-18T09:14:45.554Z,3.23
2023-03-18T09:17:14.618Z,3.80
2023-03-18T09:19:42.486Z,1.47
2023-03-18T09:22:10.425Z,2.87
2023-03-18T09:24:38.494Z,3.47
2023-03-18T09:27:07.489Z,3.53
2023-03-18T09:29:35.432Z,3.40
2023-03-18T09:32:05.927Z,3.23
2023-03-18T09:34:34.976Z,3.57
2023-03-18T09:37:02.758Z,2.63
2023-03-18T09:39:30.630Z,2.37
2023-03-18T09:42:14.220Z,2.63
2023-03-18T09:44:43.608Z,2.97
2023-03-18T09:47:43.295Z,2.10
2023-03-18T09:50:22.767Z,1.87
2023-03-18T09:52:59.687Z,4.20
2023-03-18T09:55:35.715Z,4.03
2023-03-18T09:58:07.960Z,4.70
2023-03-18T10:00:39.248Z,3.13
2023-03-18T10:03:15.892Z,2.63
2023-03-18T10:05:51.046Z,5.40
2023-03-18T10:08:26.573Z,5.97
2023-03-18T10:10:54.525Z,3.80
2023-03-18T10:13:27.078Z,2.47
2023-03-18T10:15:57.715Z,4.10
2023-03-18T10:18:32.062Z,4.93
2023-03-18T10:21:14.060Z,3.63
2023-03-18T10:23:50.728Z,5.30
2023-03-18T10:26:24.222Z,3.07
2023-03-18T10:29:28.411Z,4.47
2023-03-18T10:32:09.454Z,3.47
2023-03-18T10:34:42.878Z,6.73
2023-03-18T10:37:20.109Z,3.63
2023-03-18T10:39:49.428Z,2.50
2023-03-18T10:42:21.944Z,4.37
2023-03-18T10:44:51.428Z,5.97
2023-03-18T10:47:23.366Z,2.00
2023-03-18T10:50:04.488Z,6.43
2023-03-18T10:52:37.071Z,4.07
2023-03-18T10:55:05.929Z,2.97
2023-03-18T10:57:33.746Z,3.13
2023-03-18T11:00:01.710Z,2.40
2023-03-18T11:02:34.203Z,5.30
2023-03-18T11:05:07.909Z,5.17
2023-03-18T11:07:36.085Z,6.33
2023-03-18T11:10:18.091Z,4.30
2023-03-18T11:12:46.186Z,2.13
2023-03-18T11:15:14.660Z,3.10
2023-03-18T11:17:43.411Z,2.13
2023-03-18T11:20:25.257Z,4.27
2023-03-18T11:22:57.494Z,1.60
2023-03-18T11:25:29.208Z,3.27
2023-03-18T11:28:00.350Z,3.90
2023-03-18T11:30:34.645Z,5.37
2023-03-18T11:33:08.086Z,3.60
2023-03-18T11:35:41.817Z,2.50
2023-03-18T11:38:16.634Z,1.27
2023-03-18T11:40:44.836Z,4.47
2023-03-18T11:43:20.041Z,5.77
2023-03-18T11:45:52.382Z,2.77
2023-03-18T11:48:30.366Z,5.67
2023-03-18T11:51:24.605Z,6.10
2023-03-18T11:54:06.790Z,4.87
2023-03-18T11:56:36.256Z,1.87
2023-03-18T11:59:42.766Z,4.43
2023-03-18T12:02:32.145Z,6.17
2023-03-18T12:05:24.696Z,1.60
2023-03-18T12:08:04.225Z,4.77
2023-03-18T12:10:36.235Z,2.87
2023-03-18T12:13:14.476Z,8.03
2023-03-18T12:15:53.164Z,4.23
2023-03-18T12:18:39.092Z,5.20
2023-03-18T12:21:27.851Z,1.67
2023-03-18T12:24:09.218Z,3.37
2023-03-18T12:26:46.524Z,3.40
2023-03-18T12:29:42.466Z,2.20
2023-03-18T12:32:20.579Z,2.00
2023-03-18T12:35:20.687Z,4.60
2023-03-18T12:38:03.881Z,3.90
2023-03-18T12:40:48.789Z,6.97
2023-03-18T12:43:28.513Z,4.03
2023-03-18T12:46:02.475Z,9.27
2023-03-18T12:48:43.775Z,2.90
2023-03-18T12:51:15.289Z,2.17
2023-03-18T12:53:46.518Z,5.50
2023-03-18T12:56:19.807Z,1.87
2023-03-18T12:58:52.247Z,2.73
2023-03-18T13:01:24.679Z,2.17
2023-03-18T13:03:58.272Z,1.33
2023-03-18T13:06:31.913Z,2.73
2023-03-18T13:09:06.713Z,5.50
2023-03-18T13:11:47.372Z,2.30
2023-03-18T13:14:23.265Z,4.67
2023-03-18T13:16:52.800Z,3.80
2023-03-18T13:19:20.750Z,3.97
2023-03-18T13:21:53.738Z,1.73
2023-03-18T13:24:46.824Z,1.77
2023-03-18T13:27:46.743Z,1.60
2023-03-18T13:30:25.810Z,3.27
2023-03-18T13:33:20.977Z,3.13
2023-03-18T13:36:20.473Z,2.00
2023-03-18T13:39:06.655Z,2.40
2023-03-18T13:41:56.500Z,5.33
2023-03-18T13:44:38.886Z,4.50
2023-03-18T13:47:10.338Z,1.17
2023-03-18T13:49:39.623Z,2.87
2023-03-18T13:52:24.328Z,2.27
2023-03-18T13:54:52.685Z,2.30
2023-03-18T13:57:35.781Z,2.37
2023-03-18T14:00:33.460Z,1.73
2023-03-18T14:03:21.895Z,1.37
2023-03-18T14:05:51.558Z,3.90
2023-03-18T14:08:35.784Z,2.23
2023-03-18T14:11:50.008Z,3.03
2023-03-18T14:14:54.823Z,3.53
2023-03-18T14:17:47.713Z,4.17
2023-03-18T14:20:25.795Z,1.67
2023-03-18T14:22:55.075Z,3.43
2023-03-18T14:25:42.630Z,1.67
2023-03-18T14:28:20.524Z,1.87
2023-03-18T14:30:56.723Z,2.77
2023-03-18T14:33:34.455Z,5.33
2023-03-18T14:36:10.285Z,3.70
2023-03-18T14:38:50.501Z,3.43
2023-03-18T14:41:23.894Z,3.03
2023-03-18T14:44:02.364Z,2.43
2023-03-18T14:46:34.901Z,3.53
2023-03-18T14:49:25.451Z,1.63
2023-03-18T14:51:55.248Z,2.93
2023-03-18T14:54:27.127Z,1.83
2023-03-18T14:56:56.663Z,1.50
2023-03-18T14:59:26.382Z,1.03
2023-03-18T15:01:55.588Z,4.07
2023-03-18T15:04:26.681Z,3.80
2023-03-18T15:06:56.567Z,2.23
2023-03-18T15:09:27.449Z,4.80
2023-03-18T15:11:55.861Z,4.83
2023-03-18T15:14:27.059Z,2.73
2023-03-18T15:16:55.841Z,5.57
2023-03-18T15:19:26.806Z,4.07
2023-03-18T15:21:55.759Z,6.63
2023-03-18T15:24:26.951Z,4.30
2023-03-18T15:26:59.011Z,7.43
2023-03-18T15:29:29.498Z,5.77
2023-03-18T15:32:10.377Z,2.20
2023-03-18T15:34:43.689Z,5.10
2023-03-18T15:37:36.183Z,3.43
2023-03-18T15:40:30.800Z,4.17
2023-03-18T15:43:04.186Z,5.33
2023-03-18T15:45:32.980Z,2.50
2023-03-18T15:48:08.231Z,9.07
2023-03-18T15:50:38.261Z,2.97
2023-03-18T15:53:19.475Z,6.20
2023-03-18T15:55:50.142Z,3.60
2023-03-18T15:58:23.919Z,3.77
2023-03-18T16:00:54.226Z,3.43
2023-03-18T16:03:25.320Z,6.03
2023-03-18T16:05:55.228Z,4.93
2023-03-18T16:08:24.050Z,3.57
2023-03-18T16:10:54.697Z,7.40
2023-03-18T16:13:25.508Z,3.93
2023-03-18T16:15:54.188Z,6.13
2023-03-18T16:18:22.801Z,3.43
2023-03-18T16:20:51.120Z,3.57
2023-03-18T16:23:20.704Z,10.90
2023-03-18T16:25:50.767Z,4.87
2023-03-18T16:28:22.109Z,3.27
2023-03-18T16:30:52.150Z,5.90
2023-03-18T16:33:21.650Z,3.50
2023-03-18T16:35:56.694Z,3.60
2023-03-18T16:38:26.715Z,8.47
2023-03-18T16:40:55.456Z,5.33
2023-03-18T16:43:26.964Z,4.60
2023-03-18T16:45:58.510Z,4.80
2023-03-18T16:48:28.087Z,4.33
2023-03-18T16:50:57.883Z,8.33
2023-03-18T16:53:29.939Z,4.30
2023-03-18T16:56:00.227Z,5.97
2023-03-18T16:58:31.067Z,5.47
2023-03-18T17:00:59.963Z,4.57
2023-03-18T17:03:29.328Z,4.87
2023-03-18T17:05:57.498Z,4.23
2023-03-18T17:08:27.121Z,8.63
2023-03-18T17:10:58.345Z,3.53
2023-03-18T17:13:29.125Z,6.10
2023-03-18T17:15:57.013Z,2.47
2023-03-18T17:18:26.172Z,5.37
2023-03-18T17:20:54.036Z,3.13
2023-03-18T17:23:26.707Z,8.33
2023-03-18T17:25:59.225Z,6.17
2023-03-18T17:28:35.537Z,5.67
2023-03-18T17:31:03.749Z,4.87
2023-03-18T17:33:33.861Z,8.03
2023-03-18T17:36:02.648Z,7.93
2023-03-18T17:38:32.277Z,5.17
2023-03-18T17:41:03.788Z,9.83
2023-03-18T17:43:33.828Z,16.80
2023-03-18T17:46:03.669Z,13.17
2023-03-18T17:48:32.963Z,11.10
2023-03-18T17:51:03.527Z,7.10
2023-03-18T17:53:33.988Z,8.10
2023-03-18T17:56:04.734Z,6.67
2023-03-18T17:58:34.087Z,10.70
2023-03-18T18:01:06.566Z,15.63
2023-03-18T18:03:36.880Z,12.40
2023-03-18T18:06:06.763Z,13.33
2023-03-18T18:08:36.112Z,11.47
2023-03-18T18:11:20.041Z,29.67
2023-03-18T18:13:49.081Z,75.97
2023-03-18T18:16:17.843Z,51.57
2023-03-18T18:18:48.241Z,42.53
2023-03-18T18:21:20.398Z,44.43
2023-03-18T18:23:48.681Z,33.77
2023-03-18T18:26:21.388Z,46.33
2023-03-18T18:28:51.048Z,36.93
2023-03-18T18:31:21.023Z,41.83
2023-03-18T18:33:50.462Z,54.63
2023-03-18T18:36:18.690Z,50.90
2023-03-18T18:38:46.978Z,64.93
2023-03-18T18:41:15.282Z,63.40
2023-03-18T18:43:44.659Z,64.30
2023-03-18T18:46:14.957Z,52.63
2023-03-18T18:48:49.800Z,36.30
2023-03-18T18:51:20.327Z,33.63
2023-03-18T18:53:49.011Z,28.73
2023-03-18T18:56:19.869Z,23.93
2023-03-18T18:58:49.585Z,21.57
2023-03-18T19:01:18.349Z,20.37
2023-03-18T19:03:46.867Z,18.67
2023-03-18T19:06:25.877Z,17.70
2023-03-18T19:08:55.158Z,14.17
2023-03-18T19:11:24.651Z,10.47
2023-03-18T19:13:55.153Z,11.67
2023-03-18T19:16:37.226Z,16.70
2023-03-18T19:19:05.141Z,14.17
2023-03-18T19:21:33.736Z,13.17
2023-03-18T19:24:02.222Z,13.73
2023-03-18T19:26:30.285Z,13.03
2023-03-18T19:29:00.044Z,14.73
2023-03-18T19:31:30.704Z,11.23
2023-03-18T19:34:00.439Z,11.03
2023-03-18T19:36:31.541Z,9.70
2023-03-18T19:39:01.184Z,13.90
2023-03-18T19:41:29.709Z,13.83
2023-03-18T19:44:03.892Z,14.47
2023-03-18T19:46:37.017Z,15.93
2023-03-18T19:49:10.441Z,15.83
2023-03-18T19:51:38.473Z,12.73
2023-03-18T19:54:21.164Z,13.70
2023-03-18T19:56:49.207Z,18.53
2023-03-18T19:59:23.250Z,31.50
2023-03-18T20:01:52.117Z,27.40
2023-03-18T20:04:21.580Z,31.53
2023-03-18T20:06:50.432Z,26.73
2023-03-18T20:09:18.812Z,27.47
2023-03-18T20:11:47.041Z,23.17
2023-03-18T20:14:28.160Z,21.30
2023-03-18T20:16:58.846Z,24.60
2023-03-18T20:19:26.757Z,18.87
2023-03-18T20:21:55.209Z,16.33
2023-03-18T20:24:29.742Z,15.97
2023-03-18T20:26:58.344Z,17.37
2023-03-18T20:29:28.367Z,16.57
2023-03-18T20:31:58.937Z,14.07
2023-03-18T20:34:27.122Z,15.77
2023-03-18T20:36:55.254Z,14.97
2023-03-18T20:39:24.090Z,14.13
2023-03-18T20:41:51.926Z,16.60
2023-03-18T20:44:19.800Z,19.83
2023-03-18T20:46:49.036Z,12.23
2023-03-18T20:49:17.131Z,15.80
2023-03-18T20:51:45.584Z,14.57
2023-03-18T20:54:18.705Z,12.13
2023-03-18T20:56:46.942Z,18.63
2023-03-18T20:59:14.913Z,12.63
2023-03-18T21:01:42.984Z,18.13
2023-03-18T21:04:13.803Z,13.67
2023-03-18T21:06:42.110Z,13.67
2023-03-18T21:09:12.316Z,20.07
2023-03-18T21:11:40.567Z,14.03
2023-03-18T21:14:08.557Z,20.70
2023-03-18T21:16:38.015Z,16.13
2023-03-18T21:19:05.916Z,13.60
2023-03-18T21:21:39.217Z,11.93
2023-03-18T21:24:23.703Z,15.63
2023-03-18T21:27:03.763Z,13.83
2023-03-18T21:29:32.886Z,20.37
2023-03-18T21:32:02.434Z,15.27
2023-03-18T21:34:30.496Z,16.00
2023-03-18T21:36:59.806Z,16.23
2023-03-18T21:39:27.811Z,13.20
2023-03-18T21:41:56.167Z,12.43
2023-03-18T21:44:24.032Z,12.90
2023-03-18T21:46:52.001Z,14.10
2023-03-18T21:49:19.878Z,13.00
2023-03-18T21:51:47.725Z,13.60
2023-03-18T21:54:19.784Z,15.33
2023-03-18T21:56:47.680Z,9.60
2023-03-18T21:59:15.514Z,9.87
2023-03-18T22:01:43.375Z,9.50
2023-03-18T22:04:12.210Z,17.53
2023-03-18T22:06:40.115Z,13.57
2023-03-18T22:09:08.713Z,11.07
2023-03-18T22:11:37.977Z,9.57
2023-03-18T22:14:05.809Z,9.00
2023-03-18T22:16:33.640Z,10.27
2023-03-18T22:19:01.496Z,11.13
2023-03-18T22:21:29.617Z,12.00
2023-03-18T22:23:58.230Z,10.50
2023-03-18T22:26:26.276Z,14.43
2023-03-18T22:28:55.596Z,8.07
2023-03-18T22:31:26.394Z,13.33
2023-03-18T22:33:55.307Z,10.63
2023-03-18T22:36:25.440Z,9.80
2023-03-18T22:38:53.481Z,14.93
2023-03-18T22:41:23.124Z,13.67
2023-03-18T22:43:51.717Z,17.13
2023-03-18T22:46:21.089Z,13.23
2023-03-18T22:48:49.004Z,17.13
2023-03-18T22:51:24.108Z,15.87
2023-03-18T22:53:53.791Z,16.40
2023-03-18T22:56:23.098Z,14.33
2023-03-18T22:58:51.435Z,14.70
2023-03-18T23:01:27.493Z,18.67
2023-03-18T23:03:55.732Z,19.10
2023-03-18T23:06:24.852Z,12.53
2023-03-18T23:08:52.763Z,19.10
2023-03-18T23:11:20.798Z,16.33
2023-03-18T23:13:50.796Z,18.73
2023-03-18T23:16:22.036Z,18.67
2023-03-18T23:18:51.074Z,19.93
2023-03-18T23:21:21.968Z,18.90
2023-03-18T23:23:50.095Z,22.67
2023-03-18T23:26:18.399Z,19.07
2023-03-18T23:28:46.556Z,17.73
2023-03-18T23:31:14.782Z,25.10
2023-03-18T23:33:44.519Z,15.57
2023-03-18T23:36:13.321Z,16.73
2023-03-18T23:38:41.283Z,16.70
2023-03-18T23:41:09.242Z,18.23
2023-03-18T23:43:37.253Z,19.43
2023-03-18T23:46:05.309Z,20.17
2023-03-18T23:48:33.181Z,21.83
2023-03-18T23:51:02.446Z,15.30
2023-03-18T23:53:30.316Z,16.27
2023-03-18T23:55:58.194Z,16.47
2023-03-18T23:58:26.058Z,14.40
